sensor_id;sensor_type;location;lat;lon;timestamp;pressure;altitude;pressure_sealevel;temperature;humidity
32081;BME280;18593;51.426;7.030;2023-02-19T00:01:26;100687.63;;;10.89;84.94
32081;BME280;18593;51.426;7.030;2023-02-19T00:03:57;100691.72;;;10.85;85.22
32081;BME280;18593;51.426;7.030;2023-02-19T00:06:27;100695.00;;;10.80;85.65
32081;BME280;18593;51.426;7.030;2023-02-19T00:08:54;100686.16;;;10.86;85.74
32081;BME280;18593;51.426;7.030;2023-02-19T00:11:23;100702.59;;;10.90;85.19
32081;BME280;18593;51.426;7.030;2023-02-19T00:13:51;100684.31;;;10.87;85.27
32081;BME280;18593;51.426;7.030;2023-02-19T00:16:20;100695.00;;;10.80;85.63
32081;BME280;18593;51.426;7.030;2023-02-19T00:18:47;100697.25;;;10.83;85.84
32081;BME280;18593;51.426;7.030;2023-02-19T00:21:16;100690.91;;;10.84;86.35
32081;BME280;18593;51.426;7.030;2023-02-19T00:23:48;100690.88;;;10.91;85.45
32081;BME280;18593;51.426;7.030;2023-02-19T00:26:16;100698.50;;;10.94;85.50
32081;BME280;18593;51.426;7.030;2023-02-19T00:28:44;100687.38;;;10.97;85.19
32081;BME280;18593;51.426;7.030;2023-02-19T00:31:15;100681.41;;;11.01;84.85
32081;BME280;18593;51.426;7.030;2023-02-19T00:33:42;100690.25;;;11.02;84.59
32081;BME280;18593;51.426;7.030;2023-02-19T00:36:09;100693.94;;;11.01;84.60
32081;BME280;18593;51.426;7.030;2023-02-19T00:38:37;100681.22;;;11.03;84.58
32081;BME280;18593;51.426;7.030;2023-02-19T00:41:05;100682.22;;;11.02;84.33
32081;BME280;18593;51.426;7.030;2023-02-19T00:43:46;100675.47;;;10.99;84.66
32081;BME280;18593;51.426;7.030;2023-02-19T00:46:13;100672.81;;;10.99;84.66
32081;BME280;18593;51.426;7.030;2023-02-19T00:48:40;100666.47;;;10.94;85.06
32081;BME280;18593;51.426;7.030;2023-02-19T00:51:07;100670.97;;;10.87;85.27
32081;BME280;18593;51.426;7.030;2023-02-19T00:53:34;100660.50;;;10.92;85.35
32081;BME280;18593;51.426;7.030;2023-02-19T00:56:01;100668.31;;;10.93;85.18
32081;BME280;18593;51.426;7.030;2023-02-19T00:58:30;100667.88;;;10.96;85.13
32081;BME280;18593;51.426;7.030;2023-02-19T01:00:57;100667.88;;;10.96;85.06
32081;BME280;18593;51.426;7.030;2023-02-19T01:03:24;100660.69;;;10.97;85.03
32081;BME280;18593;51.426;7.030;2023-02-19T01:05:51;100667.47;;;10.93;84.97
32081;BME280;18593;51.426;7.030;2023-02-19T01:08:19;100665.84;;;10.85;85.65
32081;BME280;18593;51.426;7.030;2023-02-19T01:10:46;100663.81;;;10.80;85.60
32081;BME280;18593;51.426;7.030;2023-02-19T01:13:13;100659.91;;;10.83;85.96
32081;BME280;18593;51.426;7.030;2023-02-19T01:15:42;100656.41;;;10.82;85.45
32081;BME280;18593;51.426;7.030;2023-02-19T01:18:09;100659.50;;;10.79;85.64
32081;BME280;18593;51.426;7.030;2023-02-19T01:20:38;100658.47;;;10.80;86.04
32081;BME280;18593;51.426;7.030;2023-02-19T01:23:05;100665.84;;;10.85;85.89
32081;BME280;18593;51.426;7.030;2023-02-19T01:25:32;100655.19;;;10.85;86.00
32081;BME280;18593;51.426;7.030;2023-02-19T01:27:59;100663.38;;;10.90;85.67
32081;BME280;18593;51.426;7.030;2023-02-19T01:30:26;100654.75;;;10.88;85.77
32081;BME280;18593;51.426;7.030;2023-02-19T01:32:54;100655.59;;;10.89;85.52
32081;BME280;18593;51.426;7.030;2023-02-19T01:35:22;100654.78;;;10.81;86.02
32081;BME280;18593;51.426;7.030;2023-02-19T01:37:49;100651.88;;;10.83;85.89
32081;BME280;18593;51.426;7.030;2023-02-19T01:40:16;100648.41;;;10.82;86.22
32081;BME280;18593;51.426;7.030;2023-02-19T01:42:43;100656.41;;;10.82;86.13
32081;BME280;18593;51.426;7.030;2023-02-19T01:45:18;100646.56;;;10.83;86.12
32081;BME280;18593;51.426;7.030;2023-02-19T01:47:46;100648.81;;;10.86;86.20
32081;BME280;18593;51.426;7.030;2023-02-19T01:50:17;100644.50;;;10.92;85.73
32081;BME280;18593;51.426;7.030;2023-02-19T01:52:44;100649.84;;;10.85;85.76
32081;BME280;18593;51.426;7.030;2023-02-19T01:55:11;100646.97;;;10.87;85.43
32081;BME280;18593;51.426;7.030;2023-02-19T01:57:41;100648.22;;;10.84;85.78
32081;BME280;18593;51.426;7.030;2023-02-19T02:00:12;100645.13;;;10.80;85.45
32081;BME280;18593;51.426;7.030;2023-02-19T02:02:41;100656.41;;;10.82;86.02
32081;BME280;18593;51.426;7.030;2023-02-19T02:05:11;100650.28;;;10.75;86.08
32081;BME280;18593;51.426;7.030;2023-02-19T02:07:42;100646.78;;;10.75;85.98
32081;BME280;18593;51.426;7.030;2023-02-19T02:10:27;100652.72;;;10.77;86.12
32081;BME280;18593;51.426;7.030;2023-02-19T02:12:56;100649.88;;;10.78;85.87
32081;BME280;18593;51.426;7.030;2023-02-19T02:15:27;100646.19;;;10.79;86.05
32081;BME280;18593;51.426;7.030;2023-02-19T02:17:58;100652.94;;;10.75;85.83
32081;BME280;18593;51.426;7.030;2023-02-19T02:20:34;100657.06;;;10.71;85.83
32081;BME280;18593;51.426;7.030;2023-02-19T02:23:13;100671.63;;;10.75;86.07
32081;BME280;18593;51.426;7.030;2023-02-19T02:25:55;100667.13;;;10.69;85.90
32081;BME280;18593;51.426;7.030;2023-02-19T02:28:39;100676.13;;;10.68;86.50
32081;BME280;18593;51.426;7.030;2023-02-19T02:31:13;100666.50;;;10.74;86.27
32081;BME280;18593;51.426;7.030;2023-02-19T02:33:46;100667.50;;;10.73;85.77
32081;BME280;18593;51.426;7.030;2023-02-19T02:36:16;100661.97;;;10.74;85.75
32081;BME280;18593;51.426;7.030;2023-02-19T02:38:49;100663.81;;;10.80;85.58
32081;BME280;18593;51.426;7.030;2023-02-19T02:41:25;100660.94;;;10.82;85.46
32081;BME280;18593;51.426;7.030;2023-02-19T02:43:53;100665.84;;;10.85;85.15
32081;BME280;18593;51.426;7.030;2023-02-19T02:46:26;100655.00;;;10.80;85.32
32081;BME280;18593;51.426;7.030;2023-02-19T02:48:55;100659.06;;;10.82;85.04
32081;BME280;18593;51.426;7.030;2023-02-19T02:51:24;100660.75;;;10.83;84.66
32081;BME280;18593;51.426;7.030;2023-02-19T02:54:01;100664.84;;;10.79;85.09
32081;BME280;18593;51.426;7.030;2023-02-19T02:56:49;100667.91;;;10.83;84.53
32081;BME280;18593;51.426;7.030;2023-02-19T02:59:17;100667.50;;;10.73;84.69
32081;BME280;18593;51.426;7.030;2023-02-19T03:01:49;100667.94;;;10.70;85.52
32081;BME280;18593;51.426;7.030;2023-02-19T03:04:37;100664.66;;;10.74;85.04
32081;BME280;18593;51.426;7.030;2023-02-19T03:07:29;100669.16;;;10.74;84.92
32081;BME280;18593;51.426;7.030;2023-02-19T03:09:59;100664.84;;;10.79;84.97
32081;BME280;18593;51.426;7.030;2023-02-19T03:12:28;100675.72;;;10.85;84.61
32081;BME280;18593;51.426;7.030;2023-02-19T03:15:16;100688.44;;;10.82;84.24
32081;BME280;18593;51.426;7.030;2023-02-19T03:18:06;100684.34;;;10.80;84.40
32081;BME280;18593;51.426;7.030;2023-02-19T03:20:55;100679.59;;;10.82;84.35
32081;BME280;18593;51.426;7.030;2023-02-19T03:23:25;100685.34;;;10.86;84.04
32081;BME280;18593;51.426;7.030;2023-02-19T03:26:25;100688.44;;;10.82;83.30
32081;BME280;18593;51.426;7.030;2023-02-19T03:28:53;100691.31;;;10.81;83.62
32081;BME280;18593;51.426;7.030;2023-02-19T03:31:42;100692.34;;;10.80;83.42
32081;BME280;18593;51.426;7.030;2023-02-19T03:34:14;100704.06;;;10.79;83.54
32081;BME280;18593;51.426;7.030;2023-02-19T03:36:45;100697.25;;;10.76;83.50
32081;BME280;18593;51.426;7.030;2023-02-19T03:39:19;100703.41;;;10.77;83.47
32081;BME280;18593;51.426;7.030;2023-02-19T03:41:51;100704.22;;;10.77;83.21
32081;BME280;18593;51.426;7.030;2023-02-19T03:44:24;100715.75;;;10.71;83.56
32081;BME280;18593;51.426;7.030;2023-02-19T03:46:56;100712.88;;;10.66;82.95
32081;BME280;18593;51.426;7.030;2023-02-19T03:49:33;100711.41;;;10.64;83.24
32081;BME280;18593;51.426;7.030;2023-02-19T03:52:09;100712.28;;;10.64;83.39
32081;BME280;18593;51.426;7.030;2023-02-19T03:57:27;100711.22;;;10.65;83.52
32081;BME280;18593;51.426;7.030;2023-02-19T03:59:58;100724.78;;;10.70;nan
32081;BME280;18593;51.426;7.030;2023-02-19T04:02:40;100730.09;;;10.64;83.08
32081;BME280;18593;51.426;7.030;2023-02-19T04:05:12;100734.81;;;10.68;83.29
32081;BME280;18593;51.426;7.030;2023-02-19T04:07:41;100734.41;;;10.71;82.57
32081;BME280;18593;51.426;7.030;2023-02-19T04:10:10;100734.63;;;10.70;82.88
32081;BME280;18593;51.426;7.030;2023-02-19T04:12:44;100730.72;;;10.66;83.19
32081;BME280;18593;51.426;7.030;2023-02-19T04:15:14;100747.75;;;10.65;83.63
32081;BME280;18593;51.426;7.030;2023-02-19T04:17:49;100755.75;;;10.71;82.90
32081;BME280;18593;51.426;7.030;2023-02-19T04:20:19;100757.59;;;10.64;82.23
32081;BME280;18593;51.426;7.030;2023-02-19T04:22:48;100753.06;;;10.58;83.30
32081;BME280;18593;51.426;7.030;2023-02-19T04:25:15;100752.28;;;10.64;83.16
32081;BME280;18593;51.426;7.030;2023-02-19T04:27:43;100753.28;;;10.70;82.74
32081;BME280;18593;51.426;7.030;2023-02-19T04:30:13;100760.69;;;10.74;82.69
32081;BME280;18593;51.426;7.030;2023-02-19T04:32:40;100757.38;;;10.72;82.98
32081;BME280;18593;51.426;7.030;2023-02-19T04:35:07;100760.69;;;10.74;82.65
32081;BME280;18593;51.426;7.030;2023-02-19T04:37:36;100760.25;;;10.77;82.76
32081;BME280;18593;51.426;7.030;2023-02-19T04:40:04;100772.78;;;10.70;82.58
32081;BME280;18593;51.426;7.030;2023-02-19T04:42:31;100778.31;;;10.62;82.38
32081;BME280;18593;51.426;7.030;2023-02-19T04:44:58;100791.22;;;10.58;83.28
32081;BME280;18593;51.426;7.030;2023-02-19T04:47:25;100793.50;;;10.62;82.96
32081;BME280;18593;51.426;7.030;2023-02-19T04:49:52;100784.06;;;10.59;82.28
32081;BME280;18593;51.426;7.030;2023-02-19T04:52:19;100790.19;;;10.53;82.32
32081;BME280;18593;51.426;7.030;2023-02-19T04:54:48;100785.47;;;10.48;82.80
32081;BME280;18593;51.426;7.030;2023-02-19T04:57:15;100790.00;;;10.54;82.58
32081;BME280;18593;51.426;7.030;2023-02-19T04:59:42;100788.34;;;10.47;82.69
32081;BME280;18593;51.426;7.030;2023-02-19T05:02:09;100798.63;;;10.50;82.56
32081;BME280;18593;51.426;7.030;2023-02-19T05:04:36;100801.47;;;10.48;82.73
32081;BME280;18593;51.426;7.030;2023-02-19T05:07:03;100796.13;;;10.42;83.13
32081;BME280;18593;51.426;7.030;2023-02-19T05:09:30;100795.75;;;10.45;83.29
32081;BME280;18593;51.426;7.030;2023-02-19T05:11:59;100799.84;;;10.54;82.97
32081;BME280;18593;51.426;7.030;2023-02-19T05:14:26;100809.06;;;10.58;82.73
32081;BME280;18593;51.426;7.030;2023-02-19T05:16:53;100811.13;;;10.56;82.42
32081;BME280;18593;51.426;7.030;2023-02-19T05:19:20;100821.16;;;10.47;82.77
32081;BME280;18593;51.426;7.030;2023-02-19T05:21:47;100818.09;;;10.50;82.94
32081;BME280;18593;51.426;7.030;2023-02-19T05:24:14;100820.16;;;10.55;82.71
32081;BME280;18593;51.426;7.030;2023-02-19T05:26:41;100832.03;;;10.52;82.49
32081;BME280;18593;51.426;7.030;2023-02-19T05:29:10;100830.84;;;10.55;82.54
32081;BME280;18593;51.426;7.030;2023-02-19T05:31:37;100828.78;;;10.57;82.33
32081;BME280;18593;51.426;7.030;2023-02-19T05:34:04;100831.88;;;10.61;82.08
32081;BME280;18593;51.426;7.030;2023-02-19T05:36:31;100834.50;;;10.54;82.50
32081;BME280;18593;51.426;7.030;2023-02-19T05:38:58;100847.06;;;10.60;82.12
32081;BME280;18593;51.426;7.030;2023-02-19T05:41:27;100835.13;;;10.49;82.57
32081;BME280;18593;51.426;7.030;2023-02-19T05:43:55;100839.44;;;10.57;82.21
32081;BME280;18593;51.426;7.030;2023-02-19T05:46:53;100838.41;;;10.58;82.13
32081;BME280;18593;51.426;7.030;2023-02-19T05:49:25;100848.09;;;10.66;81.83
32081;BME280;18593;51.426;7.030;2023-02-19T05:59:39;100845.97;;;10.48;81.92
32081;BME280;18593;51.426;7.030;2023-02-19T06:02:08;100856.84;;;10.46;82.17
32081;BME280;18593;51.426;7.030;2023-02-19T06:04:35;100866.28;;;10.49;81.79
32081;BME280;18593;51.426;7.030;2023-02-19T06:07:02;100862.41;;;10.45;81.46
32081;BME280;18593;51.426;7.030;2023-02-19T06:09:29;100859.91;;;10.43;82.02
32081;BME280;18593;51.426;7.030;2023-02-19T06:11:56;100862.78;;;10.42;82.30
32081;BME280;18593;51.426;7.030;2023-02-19T06:14:24;100864.25;;;10.44;82.73
32081;BME280;18593;51.426;7.030;2023-02-19T06:16:51;100853.59;;;10.51;82.51
32081;BME280;18593;51.426;7.030;2023-02-19T06:19:19;100868.34;;;10.53;81.88
32081;BME280;18593;51.426;7.030;2023-02-19T06:21:48;100866.13;;;10.57;81.85
32081;BME280;18593;51.426;7.030;2023-02-19T06:24:15;100866.31;;;10.55;81.48
32081;BME280;18593;51.426;7.030;2023-02-19T06:26:42;100872.44;;;10.43;81.86
32081;BME280;18593;51.426;7.030;2023-02-19T06:29:09;100872.44;;;10.43;81.85
32081;BME280;18593;51.426;7.030;2023-02-19T06:31:36;100880.00;;;10.39;81.74
32081;BME280;18593;51.426;7.030;2023-02-19T06:34:03;100895.59;;;10.36;82.28
32081;BME280;18593;51.426;7.030;2023-02-19T06:36:32;100895.59;;;10.42;82.30
32081;BME280;18593;51.426;7.030;2023-02-19T06:39:00;100890.50;;;10.47;82.13
32081;BME280;18593;51.426;7.030;2023-02-19T06:41:27;100892.78;;;10.50;81.94
32081;BME280;18593;51.426;7.030;2023-02-19T06:43:55;100898.50;;;10.47;81.82
32081;BME280;18593;51.426;7.030;2023-02-19T06:46:22;100897.66;;;10.40;81.92
32081;BME280;18593;51.426;7.030;2023-02-19T06:48:49;100901.38;;;10.46;82.09
32081;BME280;18593;51.426;7.030;2023-02-19T06:51:18;100911.41;;;10.44;82.02
32081;BME280;18593;51.426;7.030;2023-02-19T06:53:49;100922.50;;;10.47;81.89
32081;BME280;18593;51.426;7.030;2023-02-19T06:56:24;100919.59;;;10.42;81.89
32081;BME280;18593;51.426;7.030;2023-02-19T06:58:52;100928.19;;;10.38;81.07
32081;BME280;18593;51.426;7.030;2023-02-19T07:01:19;100929.63;;;10.34;82.15
32081;BME280;18593;51.426;7.030;2023-02-19T07:03:46;100938.44;;;10.34;82.05
32081;BME280;18593;51.426;7.030;2023-02-19T07:06:13;100945.19;;;10.30;82.53
32081;BME280;18593;51.426;7.030;2023-02-19T07:08:40;100948.25;;;10.27;82.92
32081;BME280;18593;51.426;7.030;2023-02-19T07:11:09;100954.84;;;10.31;82.46
32081;BME280;18593;51.426;7.030;2023-02-19T07:13:35;100961.00;;;10.38;82.47
32081;BME280;18593;51.426;7.030;2023-02-19T07:16:04;100956.34;;;10.47;82.12
32081;BME280;18593;51.426;7.030;2023-02-19T07:18:32;100963.91;;;10.43;81.17
32081;BME280;18593;51.426;7.030;2023-02-19T07:21:01;100962.25;;;10.42;81.44
32081;BME280;18593;51.426;7.030;2023-02-19T07:23:29;100979.31;;;10.48;81.68
32081;BME280;18593;51.426;7.030;2023-02-19T07:25:56;100978.50;;;10.47;81.19
32081;BME280;18593;51.426;7.030;2023-02-19T07:28:24;100992.69;;;10.54;81.36
32081;BME280;18593;51.426;7.030;2023-02-19T07:30:51;100989.44;;;10.59;81.17
32081;BME280;18593;51.426;7.030;2023-02-19T07:33:18;100994.94;;;10.51;80.72
32081;BME280;18593;51.426;7.030;2023-02-19T07:35:45;100998.56;;;10.43;80.98
32081;BME280;18593;51.426;7.030;2023-02-19T07:38:15;101008.03;;;10.46;81.57
32081;BME280;18593;51.426;7.030;2023-02-19T07:40:49;101005.38;;;10.52;81.22
32081;BME280;18593;51.426;7.030;2023-02-19T07:43:16;101014.63;;;10.50;80.52
32081;BME280;18593;51.426;7.030;2023-02-19T07:45:45;101011.97;;;10.50;80.54
32081;BME280;18593;51.426;7.030;2023-02-19T07:48:15;101017.88;;;10.45;80.73
32081;BME280;18593;51.426;7.030;2023-02-19T07:50:43;101026.66;;;10.39;81.21
32081;BME280;18593;51.426;7.030;2023-02-19T07:53:16;101024.41;;;10.43;81.44
32081;BME280;18593;51.426;7.030;2023-02-19T07:55:43;101020.78;;;10.50;81.33
32081;BME280;18593;51.426;7.030;2023-02-19T07:58:09;101005.59;;;10.51;80.78
32081;BME280;18593;51.426;7.030;2023-02-19T08:00:36;101028.97;;;10.49;81.25
32081;BME280;18593;51.426;7.030;2023-02-19T08:03:05;101027.38;;;10.54;81.16
32081;BME280;18593;51.426;7.030;2023-02-19T08:05:32;101031.47;;;10.57;81.05
32081;BME280;18593;51.426;7.030;2023-02-19T08:07:59;101039.03;;;10.53;81.09
32081;BME280;18593;51.426;7.030;2023-02-19T08:10:26;101039.69;;;10.55;81.01
32081;BME280;18593;51.426;7.030;2023-02-19T08:13:13;101048.50;;;10.56;81.18
32081;BME280;18593;51.426;7.030;2023-02-19T08:15:48;101061.03;;;10.55;80.90
32081;BME280;18593;51.426;7.030;2023-02-19T08:18:18;101054.88;;;10.55;81.50
32081;BME280;18593;51.426;7.030;2023-02-19T08:20:45;101062.88;;;10.62;81.18
32081;BME280;18593;51.426;7.030;2023-02-19T08:23:13;101055.47;;;10.57;80.38
32081;BME280;18593;51.426;7.030;2023-02-19T08:25:40;101060.59;;;10.58;81.13
32081;BME280;18593;51.426;7.030;2023-02-19T08:28:09;101055.50;;;10.64;80.85
32081;BME280;18593;51.426;7.030;2023-02-19T08:30:38;101059.41;;;10.61;80.96
32081;BME280;18593;51.426;7.030;2023-02-19T08:33:06;101068.44;;;10.60;80.79
32081;BME280;18593;51.426;7.030;2023-02-19T08:35:35;101062.03;;;10.54;80.64
32081;BME280;18593;51.426;7.030;2023-02-19T08:38:02;101060.56;;;10.52;80.99
32081;BME280;18593;51.426;7.030;2023-02-19T08:40:30;101054.88;;;10.55;81.19
32081;BME280;18593;51.426;7.030;2023-02-19T08:43:01;101066.38;;;10.62;81.36
32081;BME280;18593;51.426;7.030;2023-02-19T08:45:29;101062.06;;;10.61;81.08
32081;BME280;18593;51.426;7.030;2023-02-19T08:47:56;101063.50;;;10.64;80.96
32081;BME280;18593;51.426;7.030;2023-02-19T08:50:23;101077.94;;;10.69;80.91
32081;BME280;18593;51.426;7.030;2023-02-19T08:52:51;101067.03;;;10.64;80.45
32081;BME280;18593;51.426;7.030;2023-02-19T08:55:18;101079.50;;;10.64;80.49
32081;BME280;18593;51.426;7.030;2023-02-19T08:57:46;101080.75;;;10.61;80.74
32081;BME280;18593;51.426;7.030;2023-02-19T09:00:13;101084.03;;;10.63;80.64
32081;BME280;18593;51.426;7.030;2023-02-19T09:02:43;101086.06;;;10.61;80.68
32081;BME280;18593;51.426;7.030;2023-02-19T09:05:10;101084.81;;;10.57;81.15
32081;BME280;18593;51.426;7.030;2023-02-19T09:07:37;101086.06;;;10.61;80.70
32081;BME280;18593;51.426;7.030;2023-02-19T09:10:07;101092.63;;;10.58;81.14
32081;BME280;18593;51.426;7.030;2023-02-19T09:12:34;101101.69;;;10.64;81.34
32081;BME280;18593;51.426;7.030;2023-02-19T09:15:03;101103.78;;;10.69;81.03
32081;BME280;18593;51.426;7.030;2023-02-19T09:17:30;101105.44;;;10.70;81.06
32081;BME280;18593;51.426;7.030;2023-02-19T09:19:57;101108.28;;;10.68;81.13
32081;BME280;18593;51.426;7.030;2023-02-19T09:22:24;101116.47;;;10.67;81.32
32081;BME280;18593;51.426;7.030;2023-02-19T09:24:51;101119.78;;;10.69;80.62
32081;BME280;18593;51.426;7.030;2023-02-19T09:27:19;101116.03;;;10.63;80.11
32081;BME280;18593;51.426;7.030;2023-02-19T09:29:46;101128.75;;;10.61;80.59
32081;BME280;18593;51.426;7.030;2023-02-19T09:32:13;101129.00;;;10.66;80.85
32081;BME280;18593;51.426;7.030;2023-02-19T09:34:40;101132.69;;;10.65;80.86
32081;BME280;18593;51.426;7.030;2023-02-19T09:37:07;101128.13;;;10.59;80.82
32081;BME280;18593;51.426;7.030;2023-02-19T09:39:35;101119.69;;;10.55;80.07
32081;BME280;18593;51.426;7.030;2023-02-19T09:42:03;101121.13;;;10.58;80.65
32081;BME280;18593;51.426;7.030;2023-02-19T09:44:38;101124.81;;;10.57;80.53
32081;BME280;18593;51.426;7.030;2023-02-19T09:47:10;101135.94;;;10.61;80.72
32081;BME280;18593;51.426;7.030;2023-02-19T09:49:40;101147.19;;;10.56;80.32
32081;BME280;18593;51.426;7.030;2023-02-19T09:52:11;101140.38;;;10.53;80.78
32081;BME280;18593;51.426;7.030;2023-02-19T09:54:40;101150.47;;;10.58;80.79
32081;BME280;18593;51.426;7.030;2023-02-19T09:57:11;101159.75;;;10.62;80.87
32081;BME280;18593;51.426;7.030;2023-02-19T09:59:43;101158.72;;;10.63;81.27
32081;BME280;18593;51.426;7.030;2023-02-19T10:02:14;101171.69;;;10.66;81.52
32081;BME280;18593;51.426;7.030;2023-02-19T10:04:42;101175.38;;;10.65;80.96
32081;BME280;18593;51.426;7.030;2023-02-19T10:07:11;101185.84;;;10.67;81.45
32081;BME280;18593;51.426;7.030;2023-02-19T10:09:38;101195.06;;;10.64;81.92
32081;BME280;18593;51.426;7.030;2023-02-19T10:12:12;101201.81;;;10.60;81.77
32081;BME280;18593;51.426;7.030;2023-02-19T10:14:42;101202.66;;;10.67;82.08
32081;BME280;18593;51.426;7.030;2023-02-19T10:17:16;101206.97;;;10.68;81.88
32081;BME280;18593;51.426;7.030;2023-02-19T10:19:46;101203.44;;;10.61;79.86
32081;BME280;18593;51.426;7.030;2023-02-19T10:22:13;101211.00;;;10.57;80.26
32081;BME280;18593;51.426;7.030;2023-02-19T10:24:40;101209.16;;;10.58;79.71
32081;BME280;18593;51.426;7.030;2023-02-19T10:27:11;101222.72;;;10.63;79.83
32081;BME280;18593;51.426;7.030;2023-02-19T10:29:38;101228.47;;;10.60;79.92
32081;BME280;18593;51.426;7.030;2023-02-19T10:32:14;101237.09;;;10.62;80.42
32081;BME280;18593;51.426;7.030;2023-02-19T10:34:43;101242.31;;;10.70;80.10
32081;BME280;18593;51.426;7.030;2023-02-19T10:37:11;101246.84;;;10.76;80.25
32081;BME280;18593;51.426;7.030;2023-02-19T10:39:41;101242.06;;;10.65;79.41
32081;BME280;18593;51.426;7.030;2023-02-19T10:42:18;101247.00;;;10.68;80.11
32081;BME280;18593;51.426;7.030;2023-02-19T10:44:48;101246.16;;;10.68;80.43
32081;BME280;18593;51.426;7.030;2023-02-19T10:47:20;101242.44;;;10.62;79.87
32081;BME280;18593;51.426;7.030;2023-02-19T10:49:49;101241.84;;;10.67;80.29
32081;BME280;18593;51.426;7.030;2023-02-19T10:52:19;101252.56;;;10.73;80.03
32081;BME280;18593;51.426;7.030;2023-02-19T10:54:49;101237.59;;;10.72;79.77
32081;BME280;18593;51.426;7.030;2023-02-19T10:57:28;101240.09;;;10.74;80.59
32081;BME280;18593;51.426;7.030;2023-02-19T11:00:00;101253.47;;;10.80;81.00
32081;BME280;18593;51.426;7.030;2023-02-19T11:02:30;101263.94;;;10.82;80.43
32081;BME280;18593;51.426;7.030;2023-02-19T11:05:18;101272.13;;;10.80;80.38
32081;BME280;18593;51.426;7.030;2023-02-19T11:07:47;101271.94;;;10.82;79.81
32081;BME280;18593;51.426;7.030;2023-02-19T11:10:25;101268.06;;;10.85;79.53
32081;BME280;18593;51.426;7.030;2023-02-19T11:12:55;101269.50;;;10.87;79.55
32081;BME280;18593;51.426;7.030;2023-02-19T11:15:26;101265.44;;;10.91;79.64
32081;BME280;18593;51.426;7.030;2023-02-19T11:17:56;101257.66;;;10.90;78.79
32081;BME280;18593;51.426;7.030;2023-02-19T11:20:25;101270.78;;;10.91;78.60
32081;BME280;18593;51.426;7.030;2023-02-19T11:22:56;101275.31;;;10.91;77.64
32081;BME280;18593;51.426;7.030;2023-02-19T11:25:24;101268.06;;;10.85;77.83
32081;BME280;18593;51.426;7.030;2023-02-19T11:27:59;101275.00;;;10.79;77.66
32081;BME280;18593;51.426;7.030;2023-02-19T11:30:37;101264.34;;;10.79;77.95
32081;BME280;18593;51.426;7.030;2023-02-19T11:33:24;101260.19;;;10.76;78.68
32081;BME280;18593;51.426;7.030;2023-02-19T11:35:58;101255.31;;;10.80;78.22
32081;BME280;18593;51.426;7.030;2023-02-19T11:38:26;101258.34;;;10.77;77.88
32081;BME280;18593;51.426;7.030;2023-02-19T11:40:57;101254.41;;;10.73;76.88
32081;BME280;18593;51.426;7.030;2023-02-19T11:43:45;101255.66;;;10.70;76.83
32081;BME280;18593;51.426;7.030;2023-02-19T11:46:16;101253.59;;;10.72;77.48
32081;BME280;18593;51.426;7.030;2023-02-19T11:48:54;101253.66;;;10.79;77.86
32081;BME280;18593;51.426;7.030;2023-02-19T11:51:39;101253.72;;;10.86;78.36
32081;BME280;18593;51.426;7.030;2023-02-19T11:54:20;101259.94;;;10.71;79.81
32081;BME280;18593;51.426;7.030;2023-02-19T11:56:54;101245.84;;;10.77;80.83
32081;BME280;18593;51.426;7.030;2023-02-19T11:59:26;101251.88;;;10.86;80.58
32081;BME280;18593;51.426;7.030;2023-02-19T12:02:33;101243.91;;;10.93;81.04
32081;BME280;18593;51.426;7.030;2023-02-19T12:05:18;101245.97;;;10.97;80.70
32081;BME280;18593;51.426;7.030;2023-02-19T12:08:32;101234.09;;;11.00;80.22
32081;BME280;18593;51.426;7.030;2023-02-19T12:11:31;101248.63;;;10.91;79.23
32081;BME280;18593;51.426;7.030;2023-02-19T12:14:20;101265.41;;;10.85;79.14
32081;BME280;18593;51.426;7.030;2023-02-19T12:16:51;101269.72;;;10.86;78.98
32081;BME280;18593;51.426;7.030;2023-02-19T12:19:27;101274.44;;;10.83;78.71
32081;BME280;18593;51.426;7.030;2023-02-19T12:22:22;101275.69;;;10.88;79.24
32081;BME280;18593;51.426;7.030;2023-02-19T12:25:16;101275.06;;;10.86;78.98
32081;BME280;18593;51.426;7.030;2023-02-19T12:27:59;101278.50;;;10.79;78.05
32081;BME280;18593;51.426;7.030;2023-02-19T12:30:42;101271.78;;;10.83;77.98
32081;BME280;18593;51.426;7.030;2023-02-19T12:33:39;101279.38;;;10.87;77.92
32081;BME280;18593;51.426;7.030;2023-02-19T12:36:15;101285.97;;;10.91;78.27
32081;BME280;18593;51.426;7.030;2023-02-19T12:38:49;101283.50;;;10.89;77.93
32081;BME280;18593;51.426;7.030;2023-02-19T12:41:24;101289.44;;;10.85;76.94
32081;BME280;18593;51.426;7.030;2023-02-19T12:43:57;101292.22;;;10.76;77.12
32081;BME280;18593;51.426;7.030;2023-02-19T12:46:28;101285.19;;;10.69;76.39
32081;BME280;18593;51.426;7.030;2023-02-19T12:48:59;101289.31;;;10.71;75.88
32081;BME280;18593;51.426;7.030;2023-02-19T12:51:30;101295.72;;;10.77;75.98
32081;BME280;18593;51.426;7.030;2023-02-19T12:54:04;101281.91;;;10.73;74.85
32081;BME280;18593;51.426;7.030;2023-02-19T12:56:34;101286.00;;;10.69;75.43
32081;BME280;18593;51.426;7.030;2023-02-19T12:59:05;101278.38;;;10.66;76.16
32081;BME280;18593;51.426;7.030;2023-02-19T13:01:38;101280.03;;;10.67;75.74
32081;BME280;18593;51.426;7.030;2023-02-19T13:04:23;101289.75;;;10.75;75.52
32081;BME280;18593;51.426;7.030;2023-02-19T13:06:54;101289.56;;;10.76;74.78
32081;BME280;18593;51.426;7.030;2023-02-19T13:09:28;101290.19;;;10.78;73.45
32081;BME280;18593;51.426;7.030;2023-02-19T13:11:58;101290.56;;;10.75;73.99
32081;BME280;18593;51.426;7.030;2023-02-19T13:14:30;101298.78;;;10.74;73.63
32081;BME280;18593;51.426;7.030;2023-02-19T13:17:01;101290.00;;;10.80;74.13
32081;BME280;18593;51.426;7.030;2023-02-19T13:19:33;101300.09;;;10.85;74.70
32081;BME280;18593;51.426;7.030;2023-02-19T13:22:06;101291.88;;;10.86;74.99